createdAt,value
2023-05-05T00:01:25.282Z,80.83
2023-05-05T00:03:52.907Z,80.83
2023-05-05T00:06:19.820Z,80.79
2023-05-05T00:08:47.270Z,81.30
2023-05-05T00:11:14.347Z,81.53
2023-05-05T00:13:41.108Z,81.67
2023-05-05T00:16:07.997Z,81.66
2023-05-05T00:18:34.957Z,81.55
2023-05-05T00:21:01.708Z,81.45
2023-05-05T00:23:28.442Z,81.56
2023-05-05T00:25:55.277Z,82.02
2023-05-05T00:28:22.200Z,82.39
2023-05-05T00:30:48.997Z,81.56
2023-05-05T00:33:16.007Z,82.13
2023-05-05T00:35:42.791Z,82.06
2023-05-05T00:38:09.571Z,82.64
2023-05-05T00:40:37.408Z,81.80
2023-05-05T00:43:04.273Z,82.14
2023-05-05T00:45:31.184Z,81.60
2023-05-05T00:48:00.015Z,82.03
2023-05-05T00:50:30.032Z,81.76
2023-05-05T00:53:06.991Z,82.14
2023-05-05T00:55:35.693Z,82.38
2023-05-05T00:58:04.404Z,81.71
2023-05-05T01:00:31.727Z,82.17
2023-05-05T01:02:59.551Z,82.50
2023-05-05T01:05:33.597Z,82.50
2023-05-05T01:08:18.111Z,82.40
2023-05-05T01:10:52.178Z,82.73
2023-05-05T01:13:45.472Z,82.51
2023-05-05T01:16:21.237Z,82.37
2023-05-05T01:18:51.566Z,82.34
2023-05-05T01:21:35.102Z,82.22
2023-05-05T01:24:22.201Z,81.93
2023-05-05T01:27:12.140Z,82.19
2023-05-05T01:30:00.172Z,82.20
2023-05-05T01:32:31.455Z,82.35
2023-05-05T01:35:18.327Z,82.24
2023-05-05T01:37:59.143Z,82.34
2023-05-05T01:40:32.009Z,82.82
2023-05-05T01:43:00.859Z,82.84
2023-05-05T01:45:32.334Z,82.62
2023-05-05T01:48:01.112Z,82.31
2023-05-05T01:50:29.896Z,82.44
2023-05-05T01:52:57.917Z,82.61
2023-05-05T01:55:28.137Z,82.29
2023-05-05T01:57:58.918Z,82.62
2023-05-05T02:00:28.343Z,82.63
2023-05-05T02:02:57.483Z,82.48
2023-05-05T02:05:26.887Z,82.52
2023-05-05T02:07:58.258Z,82.74
2023-05-05T02:10:25.440Z,82.58
2023-05-05T02:12:53.415Z,82.51
2023-05-05T02:15:23.036Z,82.64
2023-05-05T02:17:54.852Z,82.74
2023-05-05T02:20:24.586Z,82.86
2023-05-05T02:22:51.398Z,83.00
2023-05-05T02:25:18.349Z,83.01
2023-05-05T02:27:48.304Z,82.92
2023-05-05T02:30:18.457Z,82.91
2023-05-05T02:32:53.639Z,82.90
2023-05-05T02:35:25.184Z,82.90
2023-05-05T02:38:00.556Z,83.07
2023-05-05T02:40:33.201Z,83.45
2023-05-05T02:43:08.265Z,83.48
2023-05-05T02:45:35.107Z,83.63
2023-05-05T02:48:05.895Z,83.45
2023-05-05T02:50:33.768Z,83.43
2023-05-05T02:53:00.845Z,83.62
2023-05-05T02:55:49.339Z,83.62
2023-05-05T02:58:24.609Z,83.88
2023-05-05T03:01:16.319Z,83.70
2023-05-05T03:04:06.455Z,83.75
2023-05-05T03:06:40.770Z,83.71
2023-05-05T03:09:11.500Z,83.73
2023-05-05T03:11:51.235Z,83.98
2023-05-05T03:14:21.220Z,83.81
2023-05-05T03:16:49.634Z,84.19
2023-05-05T03:19:20.415Z,84.24
2023-05-05T03:21:47.820Z,84.01
2023-05-05T03:24:18.959Z,84.09
2023-05-05T03:26:47.132Z,84.23
2023-05-05T03:29:15.392Z,84.45
2023-05-05T03:31:42.644Z,84.37
2023-05-05T03:34:09.745Z,84.37
2023-05-05T03:36:36.955Z,84.20
2023-05-05T03:39:03.860Z,84.18
2023-05-05T03:41:31.151Z,84.09
2023-05-05T03:43:57.903Z,84.04
2023-05-05T03:46:24.653Z,84.07
2023-05-05T03:48:51.968Z,84.12
2023-05-05T03:51:18.885Z,84.09
2023-05-05T03:53:45.714Z,84.03
2023-05-05T03:56:12.521Z,83.83
2023-05-05T03:58:39.353Z,84.00
2023-05-05T04:01:06.232Z,83.77
2023-05-05T04:03:33.253Z,83.67
2023-05-05T04:06:00.288Z,83.54
2023-05-05T04:08:27.142Z,83.67
2023-05-05T04:10:54.048Z,83.70
2023-05-05T04:13:20.941Z,83.57
2023-05-05T04:15:47.862Z,83.62
2023-05-05T04:18:14.661Z,83.45
2023-05-05T04:20:41.636Z,83.17
2023-05-05T04:23:08.445Z,83.53
2023-05-05T04:25:35.546Z,83.72
2023-05-05T04:28:03.080Z,83.85
2023-05-05T04:30:29.939Z,83.00
2023-05-05T04:32:57.279Z,83.29
2023-05-05T04:35:24.050Z,82.75
2023-05-05T04:37:50.921Z,82.79
2023-05-05T04:40:17.810Z,82.94
2023-05-05T04:42:44.555Z,82.54
2023-05-05T04:45:11.813Z,82.43
2023-05-05T04:47:39.544Z,82.13
2023-05-05T04:50:07.576Z,81.49
2023-05-05T04:52:34.795Z,81.47
2023-05-05T04:55:01.621Z,81.14
2023-05-05T04:57:29.944Z,80.94
2023-05-05T04:59:56.728Z,80.09
2023-05-05T05:02:23.671Z,79.26
2023-05-05T05:04:50.500Z,77.96
2023-05-05T05:07:17.258Z,77.02
2023-05-05T05:09:44.052Z,75.92
2023-05-05T05:12:11.140Z,74.83
2023-05-05T05:14:38.883Z,73.95
2023-05-05T05:17:06.845Z,73.46
2023-05-05T05:19:33.898Z,73.55
2023-05-05T05:22:00.718Z,73.28
2023-05-05T05:24:27.807Z,72.86
2023-05-05T05:26:54.592Z,72.94
2023-05-05T05:29:21.326Z,72.77
2023-05-05T05:31:48.158Z,72.42
2023-05-05T05:34:15.043Z,71.31
2023-05-05T05:36:41.872Z,70.45
2023-05-05T05:39:08.666Z,69.87
2023-05-05T05:41:35.694Z,68.82
2023-05-05T05:44:02.466Z,67.76
2023-05-05T05:46:29.369Z,66.86
2023-05-05T05:48:56.878Z,65.57
2023-05-05T05:51:23.737Z,64.53
2023-05-05T05:53:51.993Z,63.26
2023-05-05T05:56:18.761Z,61.99
2023-05-05T05:58:45.770Z,60.37
2023-05-05T06:01:12.765Z,57.53
2023-05-05T06:03:39.617Z,54.44
2023-05-05T06:06:07.602Z,52.69
2023-05-05T06:08:34.436Z,50.74
2023-05-05T06:11:01.279Z,50.87
2023-05-05T06:13:28.610Z,50.66
2023-05-05T06:15:55.794Z,51.42
2023-05-05T06:18:22.583Z,51.96
2023-05-05T06:20:51.080Z,51.83
2023-05-05T06:23:18.528Z,52.20
2023-05-05T06:25:45.323Z,52.58
2023-05-05T06:28:12.126Z,52.90
2023-05-05T06:30:38.997Z,53.28
2023-05-05T06:33:05.890Z,53.01
2023-05-05T06:35:32.877Z,54.13
2023-05-05T06:38:02.309Z,54.83
2023-05-05T06:40:29.234Z,54.74
2023-05-05T06:42:56.215Z,54.48
2023-05-05T06:45:23.174Z,55.01
2023-05-05T06:47:50.077Z,54.76
2023-05-05T06:50:17.400Z,54.89
2023-05-05T06:52:44.419Z,54.68
2023-05-05T06:55:11.473Z,54.66
2023-05-05T06:57:38.501Z,55.32
2023-05-05T07:00:08.405Z,55.97
2023-05-05T07:02:35.696Z,55.37
2023-05-05T07:05:02.719Z,55.35
2023-05-05T07:07:29.705Z,54.52
2023-05-05T07:09:56.763Z,54.65
2023-05-05T07:12:23.799Z,55.41
2023-05-05T07:14:50.752Z,55.48
2023-05-05T07:17:18.148Z,54.26
2023-05-05T07:19:45.078Z,54.95
2023-05-05T07:22:12.000Z,54.77
2023-05-05T07:24:39.233Z,54.40
2023-05-05T07:27:07.235Z,54.90
2023-05-05T07:29:34.301Z,55.48
2023-05-05T07:32:01.193Z,55.68
2023-05-05T07:34:28.119Z,55.25
2023-05-05T07:36:56.591Z,55.01
2023-05-05T07:39:23.632Z,54.69
2023-05-05T07:41:50.790Z,54.87
2023-05-05T07:44:17.937Z,55.65
2023-05-05T07:46:44.956Z,54.17
2023-05-05T07:49:11.989Z,53.47
2023-05-05T07:51:39.012Z,53.09
2023-05-05T07:54:06.039Z,52.74
2023-05-05T07:56:33.446Z,52.59
2023-05-05T07:59:00.807Z,52.41
2023-05-05T08:01:27.826Z,52.65
2023-05-05T08:03:54.971Z,53.05
2023-05-05T08:06:22.497Z,51.04
2023-05-05T08:08:49.849Z,50.74
2023-05-05T08:11:17.692Z,49.45
2023-05-05T08:13:44.688Z,48.75
2023-05-05T08:16:12.637Z,49.17
2023-05-05T08:18:39.950Z,49.49
2023-05-05T08:21:08.434Z,48.88
2023-05-05T08:23:36.055Z,47.57
2023-05-05T08:26:05.030Z,47.28
2023-05-05T08:28:33.084Z,48.34
2023-05-05T08:31:00.089Z,48.65
2023-05-05T08:33:27.099Z,47.88
2023-05-05T08:35:53.966Z,46.18
2023-05-05T08:38:20.909Z,45.84
2023-05-05T08:40:47.853Z,45.26
2023-05-05T08:43:16.118Z,45.26
2023-05-05T08:45:43.596Z,45.84
2023-05-05T08:48:12.425Z,45.32
2023-05-05T08:50:40.866Z,45.78
2023-05-05T08:53:16.980Z,46.05
2023-05-05T08:55:56.575Z,46.43
2023-05-05T08:58:26.369Z,46.45
2023-05-05T09:00:55.747Z,45.62
2023-05-05T09:03:23.062Z,45.08
2023-05-05T09:05:51.396Z,45.06
2023-05-05T09:08:18.962Z,45.68
2023-05-05T09:10:46.523Z,45.67
2023-05-05T09:15:53.175Z,46.63
2023-05-05T09:18:20.224Z,45.96
2023-05-05T09:20:47.174Z,45.34
2023-05-05T09:23:18.277Z,45.11
2023-05-05T09:25:47.861Z,46.17
2023-05-05T09:28:17.271Z,46.38
2023-05-05T09:30:46.999Z,46.05
2023-05-05T09:33:14.746Z,45.30
2023-05-05T09:35:56.201Z,45.68
2023-05-05T09:38:25.022Z,45.74
2023-05-05T09:40:54.164Z,46.05
2023-05-05T09:43:23.426Z,44.64
2023-05-05T09:45:51.563Z,44.14
2023-05-05T09:48:31.182Z,44.38
2023-05-05T09:50:59.503Z,43.81
2023-05-05T09:53:27.392Z,44.74
2023-05-05T09:55:55.266Z,44.88
2023-05-05T09:58:25.268Z,44.73
2023-05-05T10:00:53.253Z,44.75
2023-05-05T10:03:21.158Z,44.76
2023-05-05T10:05:50.616Z,44.02
2023-05-05T10:08:18.829Z,43.76
2023-05-05T10:10:57.615Z,43.85
2023-05-05T10:13:25.652Z,43.70
2023-05-05T10:15:54.976Z,43.47
2023-05-05T10:18:27.184Z,43.95
2023-05-05T10:21:04.424Z,44.57
2023-05-05T10:23:45.619Z,45.02
2023-05-05T10:26:14.816Z,45.02
2023-05-05T10:28:45.328Z,45.17
2023-05-05T10:31:26.317Z,44.76
2023-05-05T10:34:03.582Z,44.77
2023-05-05T10:36:34.117Z,43.64
2023-05-05T10:39:01.744Z,43.67
2023-05-05T10:41:31.732Z,43.95
2023-05-05T10:44:00.442Z,44.27
2023-05-05T10:46:29.844Z,42.94
2023-05-05T10:49:12.469Z,42.25
2023-05-05T10:51:41.213Z,42.19
2023-05-05T10:54:22.070Z,42.42
2023-05-05T10:56:50.190Z,42.37
2023-05-05T10:59:38.939Z,42.40
2023-05-05T11:02:27.303Z,41.71
2023-05-05T11:05:23.840Z,40.98
2023-05-05T11:07:51.983Z,41.30
2023-05-05T11:10:21.287Z,40.41
2023-05-05T11:15:50.194Z,40.28
2023-05-05T11:18:36.506Z,40.17
2023-05-05T11:21:15.800Z,39.14
2023-05-05T11:23:43.485Z,39.25
2023-05-05T11:26:12.073Z,38.26
2023-05-05T11:29:03.311Z,37.85
2023-05-05T11:31:32.057Z,36.57
2023-05-05T11:34:29.702Z,37.17
2023-05-05T11:37:03.553Z,37.13
2023-05-05T11:39:41.532Z,37.05
2023-05-05T11:42:28.918Z,36.00
2023-05-05T11:44:56.603Z,36.42
2023-05-05T11:47:23.471Z,36.19
2023-05-05T11:49:50.703Z,36.36
2023-05-05T11:52:17.785Z,36.62
2023-05-05T11:54:49.076Z,37.45
2023-05-05T11:57:22.081Z,37.73
2023-05-05T11:59:57.528Z,35.88
2023-05-05T12:02:26.820Z,34.96
2023-05-05T12:04:54.218Z,34.88
2023-05-05T12:07:23.741Z,36.25
2023-05-05T12:09:51.266Z,36.91
2023-05-05T12:12:19.120Z,36.49
2023-05-05T12:14:51.865Z,37.30
2023-05-05T12:17:23.113Z,36.57
2023-05-05T12:19:55.093Z,36.22
2023-05-05T12:22:27.392Z,36.19
2023-05-05T12:24:56.325Z,37.82
2023-05-05T12:27:24.196Z,38.60
2023-05-05T12:29:51.999Z,39.22
2023-05-05T12:32:22.964Z,38.09
2023-05-05T12:34:54.377Z,37.26
2023-05-05T12:37:23.012Z,38.21
2023-05-05T12:39:50.980Z,39.84
2023-05-05T12:42:19.227Z,41.09
2023-05-05T12:44:47.101Z,42.00
2023-05-05T12:47:15.092Z,41.44
2023-05-05T12:49:46.558Z,41.86
2023-05-05T12:52:14.616Z,42.04
2023-05-05T12:54:56.432Z,41.75
2023-05-05T12:57:23.782Z,41.79
2023-05-05T12:59:52.981Z,42.35
2023-05-05T13:02:20.994Z,42.38
2023-05-05T13:04:51.898Z,43.29
2023-05-05T13:07:21.433Z,42.13
2023-05-05T13:09:50.383Z,42.01
2023-05-05T13:12:22.149Z,41.62
2023-05-05T13:14:50.056Z,41.90
2023-05-05T13:17:17.305Z,41.49
2023-05-05T13:19:46.628Z,42.39
2023-05-05T13:22:13.755Z,42.14
2023-05-05T13:24:50.970Z,42.26
2023-05-05T13:27:19.666Z,42.30
2023-05-05T13:29:46.976Z,42.51
2023-05-05T13:32:13.947Z,42.40
2023-05-05T13:34:42.014Z,42.73
2023-05-05T13:37:08.994Z,41.36
2023-05-05T13:39:37.175Z,41.16
2023-05-05T13:42:04.335Z,41.79
2023-05-05T13:44:31.569Z,42.02
2023-05-05T13:46:58.572Z,42.21
2023-05-05T13:49:26.045Z,42.23
2023-05-05T13:51:53.206Z,41.55
2023-05-05T13:54:20.196Z,41.50
2023-05-05T13:56:47.186Z,41.43
2023-05-05T13:59:14.264Z,41.20
2023-05-05T14:01:41.347Z,41.60
2023-05-05T14:04:08.587Z,41.41
2023-05-05T14:06:36.730Z,40.74
2023-05-05T14:09:06.271Z,41.03
2023-05-05T14:11:33.796Z,40.67
2023-05-05T14:14:00.838Z,40.44
2023-05-05T14:16:27.869Z,41.05
2023-05-05T14:18:55.020Z,41.32
2023-05-05T14:21:22.056Z,41.28
2023-05-05T14:23:48.851Z,39.97
2023-05-05T14:26:15.693Z,39.84
2023-05-05T14:28:43.806Z,40.64
2023-05-05T14:31:11.323Z,40.74
2023-05-05T14:33:38.320Z,41.03
2023-05-05T14:36:05.700Z,41.82
2023-05-05T14:38:32.481Z,41.11
2023-05-05T14:40:59.614Z,40.76
2023-05-05T14:43:26.412Z,40.46
2023-05-05T14:45:53.474Z,40.53
2023-05-05T14:48:22.682Z,40.80
2023-05-05T14:50:50.116Z,40.42
2023-05-05T14:53:18.993Z,39.99
2023-05-05T14:55:45.896Z,39.81
2023-05-05T14:58:12.787Z,39.87
2023-05-05T15:00:39.761Z,39.82
2023-05-05T15:03:06.853Z,39.52
2023-05-05T15:05:34.000Z,40.10
2023-05-05T15:08:00.959Z,40.46
2023-05-05T15:10:28.038Z,40.12
2023-05-05T15:12:55.103Z,40.33
2023-05-05T15:15:21.942Z,40.47
2023-05-05T15:17:50.866Z,40.10
2023-05-05T15:20:17.794Z,39.19
2023-05-05T15:22:44.582Z,40.11
2023-05-05T15:25:13.378Z,40.61
2023-05-05T15:27:40.473Z,40.52
2023-05-05T15:30:07.835Z,40.42
2023-05-05T15:32:34.831Z,41.01
2023-05-05T15:35:01.798Z,40.80
2023-05-05T15:37:29.414Z,41.21
2023-05-05T15:39:56.425Z,41.44
2023-05-05T15:42:23.580Z,41.37
2023-05-05T15:44:51.393Z,41.30
2023-05-05T15:47:18.755Z,41.29
2023-05-05T15:49:45.662Z,40.75
2023-05-05T15:52:13.248Z,40.69
2023-05-05T15:54:39.982Z,40.80
2023-05-05T15:57:06.901Z,40.65
2023-05-05T15:59:33.848Z,40.81
2023-05-05T16:02:00.853Z,40.38
2023-05-05T16:04:27.638Z,41.16
2023-05-05T16:06:55.533Z,40.94
2023-05-05T16:09:22.282Z,41.11
2023-05-05T16:11:49.218Z,41.50
2023-05-05T16:14:16.121Z,41.51
2023-05-05T16:16:42.987Z,41.26
2023-05-05T16:19:09.760Z,41.39
2023-05-05T16:21:36.738Z,42.03
2023-05-05T16:24:03.596Z,42.18
2023-05-05T16:26:30.440Z,41.85
2023-05-05T16:28:57.437Z,41.81
2023-05-05T16:31:24.238Z,41.98
2023-05-05T16:33:51.103Z,42.37
2023-05-05T16:36:17.990Z,42.39
2023-05-05T16:38:44.748Z,42.17
2023-05-05T16:41:11.648Z,41.63
2023-05-05T16:43:39.153Z,41.72
2023-05-05T16:46:06.979Z,41.69
2023-05-05T16:48:33.818Z,41.84
2023-05-05T16:51:01.550Z,42.16
2023-05-05T16:53:28.305Z,42.00
2023-05-05T16:55:55.109Z,42.46
2023-05-05T16:58:25.678Z,42.51
2023-05-05T17:00:53.097Z,42.70
2023-05-05T17:03:20.563Z,43.12
2023-05-05T17:05:50.264Z,43.48
2023-05-05T17:08:17.436Z,43.51
2023-05-05T17:10:45.569Z,43.92
2023-05-05T17:13:13.906Z,44.00
2023-05-05T17:15:41.775Z,44.34
2023-05-05T17:18:08.869Z,44.44
2023-05-05T17:20:36.584Z,44.70
2023-05-05T17:23:03.400Z,44.80
2023-05-05T17:25:30.306Z,44.97
2023-05-05T17:27:57.724Z,45.72
2023-05-05T17:30:24.576Z,45.91
2023-05-05T17:32:51.407Z,46.28
2023-05-05T17:35:18.726Z,46.54
2023-05-05T17:37:45.568Z,47.56
2023-05-05T17:40:12.560Z,47.90
2023-05-05T17:42:39.381Z,49.00
2023-05-05T17:45:06.743Z,49.34
2023-05-05T17:47:33.785Z,49.59
2023-05-05T17:50:00.945Z,49.86
2023-05-05T17:52:28.301Z,50.02
2023-05-05T17:54:55.142Z,50.69
2023-05-05T17:57:22.955Z,51.03
2023-05-05T17:59:50.558Z,51.54
2023-05-05T18:02:17.481Z,51.83
2023-05-05T18:04:44.357Z,52.37
2023-05-05T18:07:12.447Z,52.77
2023-05-05T18:09:39.666Z,53.17
2023-05-05T18:12:07.884Z,53.57
2023-05-05T18:14:34.691Z,53.95
2023-05-05T18:17:01.606Z,54.41
2023-05-05T18:19:28.426Z,54.89
2023-05-05T18:21:55.454Z,55.43
2023-05-05T18:24:22.399Z,56.09
2023-05-05T18:26:51.484Z,56.12
2023-05-05T18:29:19.754Z,56.57
2023-05-05T18:31:49.503Z,56.98
2023-05-05T18:34:17.386Z,57.42
2023-05-05T18:36:44.638Z,57.80
2023-05-05T18:39:11.548Z,58.05
2023-05-05T18:41:38.488Z,58.63
2023-05-05T18:44:05.448Z,59.02
2023-05-05T18:46:32.424Z,59.42
2023-05-05T18:49:00.841Z,59.74
2023-05-05T18:51:28.510Z,60.16
2023-05-05T18:53:55.781Z,60.53
2023-05-05T18:56:22.592Z,60.68
2023-05-05T18:58:49.478Z,60.97
2023-05-05T19:01:16.511Z,61.16
2023-05-05T19:03:47.991Z,61.52
2023-05-05T19:06:16.060Z,61.93
2023-05-05T19:08:43.902Z,62.19
2023-05-05T19:11:10.944Z,62.43
2023-05-05T19:16:06.185Z,62.99
2023-05-05T19:18:33.681Z,63.23
2023-05-05T19:21:03.244Z,63.56
2023-05-05T19:23:30.036Z,64.01
2023-05-05T19:25:56.861Z,64.24
2023-05-05T19:28:23.648Z,64.39
2023-05-05T19:30:50.556Z,64.54
2023-05-05T19:33:17.542Z,64.91
2023-05-05T19:35:44.660Z,65.05
2023-05-05T19:38:12.127Z,65.20
2023-05-05T19:40:40.740Z,65.36
2023-05-05T19:43:07.943Z,65.57
2023-05-05T19:45:35.227Z,65.72
2023-05-05T19:48:02.183Z,66.05
2023-05-05T19:50:30.509Z,66.22
2023-05-05T19:52:57.873Z,66.30
2023-05-05T19:55:25.070Z,66.49
2023-05-05T19:57:51.854Z,66.68
2023-05-05T20:00:19.757Z,66.76
2023-05-05T20:02:48.716Z,66.83
2023-05-05T20:05:17.637Z,67.12
2023-05-05T20:07:46.908Z,67.56
2023-05-05T20:10:14.032Z,67.74
2023-05-05T20:12:48.375Z,68.38
2023-05-05T20:15:19.206Z,68.42
2023-05-05T20:17:47.517Z,68.47
2023-05-05T20:20:21.408Z,68.70
2023-05-05T20:22:49.592Z,69.09
2023-05-05T20:25:16.755Z,69.05
2023-05-05T20:27:44.370Z,69.32
2023-05-05T20:30:12.439Z,69.35
2023-05-05T20:32:39.569Z,69.37
2023-05-05T20:35:07.548Z,69.57
2023-05-05T20:37:34.566Z,69.80
2023-05-05T20:40:01.604Z,69.90
2023-05-05T20:42:29.927Z,69.94
2023-05-05T20:44:57.202Z,70.28
2023-05-05T20:47:24.466Z,70.44
2023-05-05T20:49:52.966Z,70.65
2023-05-05T20:52:20.006Z,70.86
2023-05-05T20:54:46.741Z,70.68
2023-05-05T20:57:13.651Z,71.18
2023-05-05T20:59:40.441Z,71.25
2023-05-05T21:02:07.895Z,71.47
2023-05-05T21:04:34.782Z,71.35
2023-05-05T21:07:01.767Z,71.49
2023-05-05T21:09:28.721Z,71.68
2023-05-05T21:11:55.589Z,71.63
2023-05-05T21:14:23.263Z,71.75
2023-05-05T21:16:50.228Z,72.08
2023-05-05T21:19:17.091Z,72.12
2023-05-05T21:21:44.604Z,72.44
2023-05-05T21:24:13.137Z,72.27
2023-05-05T21:26:44.330Z,72.49
2023-05-05T21:29:11.602Z,72.52
2023-05-05T21:31:38.678Z,72.94
2023-05-05T21:34:05.581Z,73.05
2023-05-05T21:36:34.017Z,73.22
2023-05-05T21:39:01.554Z,73.15
2023-05-05T21:41:28.449Z,73.12
2023-05-05T21:43:56.028Z,73.16
2023-05-05T21:46:23.219Z,73.51
2023-05-05T21:48:50.110Z,73.59
2023-05-05T21:51:17.509Z,73.85
2023-05-05T21:53:44.604Z,73.83
2023-05-05T21:56:11.479Z,74.03
2023-05-05T21:58:38.569Z,73.97
2023-05-05T22:01:05.672Z,74.15
2023-05-05T22:03:34.145Z,74.11
2023-05-05T22:06:01.313Z,74.24
2023-05-05T22:08:28.160Z,74.25
2023-05-05T22:10:55.102Z,74.16
2023-05-05T22:13:22.240Z,74.20
2023-05-05T22:15:49.388Z,74.29
2023-05-05T22:18:16.289Z,74.27
2023-05-05T22:20:43.516Z,74.36
2023-05-05T22:23:10.281Z,74.31
2023-05-05T22:25:37.025Z,74.26
2023-05-05T22:28:04.496Z,74.37
2023-05-05T22:30:31.531Z,74.61
2023-05-05T22:32:58.408Z,74.66
2023-05-05T22:35:25.242Z,74.69
2023-05-05T22:37:52.039Z,74.79
2023-05-05T22:40:18.831Z,74.94
2023-05-05T22:42:45.649Z,74.98
2023-05-05T22:45:13.692Z,75.25
2023-05-05T22:47:40.780Z,75.57
2023-05-05T22:50:08.302Z,75.65
2023-05-05T22:52:35.597Z,75.54
2023-05-05T22:55:02.582Z,75.86
2023-05-05T22:57:29.307Z,75.68
2023-05-05T22:59:56.277Z,75.68
2023-05-05T23:02:23.081Z,75.53
2023-05-05T23:04:51.283Z,75.54
2023-05-05T23:07:18.262Z,75.49
2023-05-05T23:09:46.155Z,75.45
2023-05-05T23:12:12.979Z,75.28
2023-05-05T23:14:39.890Z,75.03
2023-05-05T23:17:07.056Z,74.92
2023-05-05T23:19:34.822Z,74.70
2023-05-05T23:22:02.411Z,74.63
2023-05-05T23:24:29.288Z,74.86
2023-05-05T23:26:59.739Z,74.95
2023-05-05T23:29:26.645Z,75.17
2023-05-05T23:31:53.476Z,75.11
2023-05-05T23:34:20.318Z,74.88
2023-05-05T23:36:47.189Z,74.91
2023-05-05T23:39:14.102Z,74.91
2023-05-05T23:41:40.894Z,74.83
2023-05-05T23:44:07.736Z,74.94
2023-05-05T23:46:34.841Z,74.94
2023-05-05T23:49:01.818Z,74.61
2023-05-05T23:51:28.644Z,74.63
2023-05-05T23:53:57.478Z,74.57
2023-05-05T23:56:24.582Z,74.19
2023-05-05T23:58:53.195Z,74.50
